sensor_id;sensor_type;location;lat;lon;timestamp;pressure;altitude;pressure_sealevel;temperature;humidity
45369;BME280;51342;55.250;37.668;2023-05-02T00:03:34;100131.53;;;1.00;72.18
45369;BME280;51342;55.250;37.668;2023-05-02T00:06:07;100128.50;;;0.96;72.23
45369;BME280;51342;55.250;37.668;2023-05-02T00:08:38;100128.22;;;0.93;72.17
45369;BME280;51342;55.250;37.668;2023-05-02T00:11:10;100128.22;;;0.93;72.64
45369;BME280;51342;55.250;37.668;2023-05-02T00:13:41;100143.66;;;0.94;72.30
45369;BME280;51342;55.250;37.668;2023-05-02T00:16:14;100154.44;;;0.92;72.41
45369;BME280;51342;55.250;37.668;2023-05-02T00:18:45;100150.69;;;0.88;72.62
45369;BME280;51342;55.250;37.668;2023-05-02T00:21:16;100151.28;;;0.86;72.35
45369;BME280;51342;55.250;37.668;2023-05-02T00:23:50;100158.28;;;0.79;72.41
45369;BME280;51342;55.250;37.668;2023-05-02T00:26:23;100154.66;;;0.77;72.53
45369;BME280;51342;55.250;37.668;2023-05-02T00:28:55;100159.28;;;0.73;72.53
45369;BME280;51342;55.250;37.668;2023-05-02T00:31:26;100163.19;;;0.69;72.69
45369;BME280;51342;55.250;37.668;2023-05-02T00:33:57;100165.25;;;0.65;72.59
45369;BME280;51342;55.250;37.668;2023-05-02T00:36:29;100168.84;;;0.67;72.78
45369;BME280;51342;55.250;37.668;2023-05-02T00:39:01;100168.69;;;0.65;72.58
45369;BME280;51342;55.250;37.668;2023-05-02T00:41:32;100157.72;;;0.58;72.76
45369;BME280;51342;55.250;37.668;2023-05-02T00:44:04;100167.31;;;0.60;72.76
45369;BME280;51342;55.250;37.668;2023-05-02T00:46:35;100165.66;;;0.61;72.66
45369;BME280;51342;55.250;37.668;2023-05-02T00:49:07;100175.56;;;0.58;72.84
45369;BME280;51342;55.250;37.668;2023-05-02T00:51:39;100174.47;;;0.56;72.67
45369;BME280;51342;55.250;37.668;2023-05-02T00:54:11;100178.50;;;0.53;72.76
45369;BME280;51342;55.250;37.668;2023-05-02T00:56:43;100184.16;;;0.51;72.74
45369;BME280;51342;55.250;37.668;2023-05-02T00:59:15;100183.47;;;0.52;72.79
45369;BME280;51342;55.250;37.668;2023-05-02T01:05:01;100190.75;;;0.49;72.90
45369;BME280;51342;55.250;37.668;2023-05-02T01:10:47;100195.06;;;0.41;72.68
45369;BME280;51342;55.250;37.668;2023-05-02T01:13:21;100201.19;;;0.43;72.70
45369;BME280;51342;55.250;37.668;2023-05-02T01:15:55;100203.25;;;0.39;72.74
45369;BME280;51342;55.250;37.668;2023-05-02T01:18:32;100210.00;;;0.38;72.84
45369;BME280;51342;55.250;37.668;2023-05-02T01:21:07;100212.25;;;0.35;72.86
45369;BME280;51342;55.250;37.668;2023-05-02T01:23:47;100216.69;;;0.29;72.92
45369;BME280;51342;55.250;37.668;2023-05-02T01:29:38;100223.34;;;0.20;72.93
45369;BME280;51342;55.250;37.668;2023-05-02T01:32:11;100220.91;;;0.13;72.78
45369;BME280;51342;55.250;37.668;2023-05-02T01:34:45;100224.59;;;0.08;73.07
45369;BME280;51342;55.250;37.668;2023-05-02T01:37:17;100227.28;;;0.09;73.03
45369;BME280;51342;55.250;37.668;2023-05-02T01:39:50;100229.84;;;0.09;72.95
45369;BME280;51342;55.250;37.668;2023-05-02T01:42:23;100232.78;;;0.05;72.97
45369;BME280;51342;55.250;37.668;2023-05-02T01:44:57;100239.94;;;0.01;72.85
45369;BME280;51342;55.250;37.668;2023-05-02T01:47:31;100236.25;;;-0.10;72.82
45369;BME280;51342;55.250;37.668;2023-05-02T01:50:06;100236.50;;;-0.16;72.98
45369;BME280;51342;55.250;37.668;2023-05-02T01:52:39;100248.06;;;-0.11;73.14
45369;BME280;51342;55.250;37.668;2023-05-02T01:55:13;100252.97;;;-0.12;73.35
45369;BME280;51342;55.250;37.668;2023-05-02T01:57:46;100249.72;;;-0.11;73.42
45369;BME280;51342;55.250;37.668;2023-05-02T02:00:19;100247.88;;;-0.12;73.54
45369;BME280;51342;55.250;37.668;2023-05-02T02:02:54;100255.19;;;-0.15;73.42
45369;BME280;51342;55.250;37.668;2023-05-02T02:05:27;100264.22;;;-0.10;73.48
45369;BME280;51342;55.250;37.668;2023-05-02T02:07:58;100262.00;;;-0.07;73.51
45369;BME280;51342;55.250;37.668;2023-05-02T02:10:35;100265.78;;;-0.04;73.68
45369;BME280;51342;55.250;37.668;2023-05-02T02:13:18;100267.75;;;-0.01;73.41
45369;BME280;51342;55.250;37.668;2023-05-02T02:15:58;100278.75;;;0.07;73.51
45369;BME280;51342;55.250;37.668;2023-05-02T02:18:31;100266.94;;;0.07;73.41
45369;BME280;51342;55.250;37.668;2023-05-02T02:21:08;100275.78;;;0.11;73.27
45369;BME280;51342;55.250;37.668;2023-05-02T02:23:42;100276.88;;;0.13;73.48
45369;BME280;51342;55.250;37.668;2023-05-02T02:26:19;100284.06;;;0.17;73.65
45369;BME280;51342;55.250;37.668;2023-05-02T02:28:52;100278.25;;;0.18;73.61
45369;BME280;51342;55.250;37.668;2023-05-02T02:31:29;100288.09;;;0.15;74.13
45369;BME280;51342;55.250;37.668;2023-05-02T02:34:01;100294.59;;;0.20;73.97
45369;BME280;51342;55.250;37.668;2023-05-02T02:36:55;100299.09;;;0.22;73.87
45369;BME280;51342;55.250;37.668;2023-05-02T02:42:35;100312.91;;;0.24;74.02
45369;BME280;51342;55.250;37.668;2023-05-02T02:45:29;100304.41;;;0.17;73.92
45369;BME280;51342;55.250;37.668;2023-05-02T02:48:18;100315.34;;;0.16;73.78
45369;BME280;51342;55.250;37.668;2023-05-02T02:54:23;100322.97;;;0.32;74.00
45369;BME280;51342;55.250;37.668;2023-05-02T02:57:27;100322.31;;;0.57;73.45
45369;BME280;51342;55.250;37.668;2023-05-02T03:00:12;100322.72;;;0.93;73.42
45369;BME280;51342;55.250;37.668;2023-05-02T03:02:45;100327.72;;;1.25;72.93
45369;BME280;51342;55.250;37.668;2023-05-02T03:05:18;100323.66;;;1.51;72.86
45369;BME280;51342;55.250;37.668;2023-05-02T03:07:51;100319.56;;;1.78;72.48
45369;BME280;51342;55.250;37.668;2023-05-02T03:10:25;100323.81;;;2.03;72.23
45369;BME280;51342;55.250;37.668;2023-05-02T03:12:57;100333.66;;;2.33;71.93
45369;BME280;51342;55.250;37.668;2023-05-02T03:18:06;100321.47;;;2.83;70.87
45369;BME280;51342;55.250;37.668;2023-05-02T03:20:37;100321.31;;;3.07;71.08
45369;BME280;51342;55.250;37.668;2023-05-02T03:23:09;100323.66;;;3.32;70.75
45369;BME280;51342;55.250;37.668;2023-05-02T03:25:40;100327.44;;;3.63;70.12
45369;BME280;51342;55.250;37.668;2023-05-02T03:28:16;100326.31;;;3.87;69.91
45369;BME280;51342;55.250;37.668;2023-05-02T03:30:50;100324.69;;;4.06;70.07
45369;BME280;51342;55.250;37.668;2023-05-02T03:33:22;100323.06;;;4.25;69.02
45369;BME280;51342;55.250;37.668;2023-05-02T03:35:53;100336.66;;;4.43;68.70
45369;BME280;51342;55.250;37.668;2023-05-02T03:38:25;100333.53;;;4.56;68.70
45369;BME280;51342;55.250;37.668;2023-05-02T03:40:57;100337.75;;;4.74;68.49
45369;BME280;51342;55.250;37.668;2023-05-02T03:43:29;100334.00;;;4.90;67.72
45369;BME280;51342;55.250;37.668;2023-05-02T03:46:05;100337.03;;;5.04;67.12
45369;BME280;51342;55.250;37.668;2023-05-02T03:48:40;100339.69;;;5.25;66.74
45369;BME280;51342;55.250;37.668;2023-05-02T03:51:11;100340.53;;;5.44;66.83
45369;BME280;51342;55.250;37.668;2023-05-02T03:53:47;100342.53;;;5.57;66.00
45369;BME280;51342;55.250;37.668;2023-05-02T03:56:19;100337.81;;;5.72;65.87
45369;BME280;51342;55.250;37.668;2023-05-02T03:58:56;100354.31;;;5.94;65.09
45369;BME280;51342;55.250;37.668;2023-05-02T04:01:30;100358.22;;;6.09;65.55
45369;BME280;51342;55.250;37.668;2023-05-02T04:04:03;100361.19;;;6.24;64.60
45369;BME280;51342;55.250;37.668;2023-05-02T04:06:40;100360.94;;;6.42;65.19
45369;BME280;51342;55.250;37.668;2023-05-02T04:09:13;100365.66;;;6.57;64.33
45369;BME280;51342;55.250;37.668;2023-05-02T04:11:54;100364.25;;;6.71;64.63
45369;BME280;51342;55.250;37.668;2023-05-02T04:14:26;100371.69;;;6.88;64.50
45369;BME280;51342;55.250;37.668;2023-05-02T04:17:00;100372.97;;;7.04;64.69
45369;BME280;51342;55.250;37.668;2023-05-02T04:19:53;100369.03;;;7.19;64.37
45369;BME280;51342;55.250;37.668;2023-05-02T04:22:28;100372.47;;;7.40;63.27
45369;BME280;51342;55.250;37.668;2023-05-02T04:25:05;100368.00;;;7.59;63.03
45369;BME280;51342;55.250;37.668;2023-05-02T04:27:39;100371.47;;;7.82;62.83
45369;BME280;51342;55.250;37.668;2023-05-02T04:30:14;100381.78;;;8.04;62.43
45369;BME280;51342;55.250;37.668;2023-05-02T04:32:48;100366.84;;;8.21;61.57
45369;BME280;51342;55.250;37.668;2023-05-02T04:35:20;100371.16;;;8.33;60.93
45369;BME280;51342;55.250;37.668;2023-05-02T04:37:52;100371.78;;;8.40;60.75
45369;BME280;51342;55.250;37.668;2023-05-02T04:40:23;100375.66;;;8.57;60.45
45369;BME280;51342;55.250;37.668;2023-05-02T04:43:03;100380.94;;;8.70;61.10
45369;BME280;51342;55.250;37.668;2023-05-02T04:45:43;100384.78;;;8.87;60.52
45369;BME280;51342;55.250;37.668;2023-05-02T04:48:31;100380.09;;;9.05;60.65
45369;BME280;51342;55.250;37.668;2023-05-02T04:51:03;100375.19;;;9.20;59.30
45369;BME280;51342;55.250;37.668;2023-05-02T04:53:36;100390.88;;;9.35;59.36
45369;BME280;51342;55.250;37.668;2023-05-02T04:56:08;100386.84;;;9.50;58.40
45369;BME280;51342;55.250;37.668;2023-05-02T04:58:41;100382.53;;;9.62;57.52
45369;BME280;51342;55.250;37.668;2023-05-02T05:01:14;100392.66;;;9.71;56.52
45369;BME280;51342;55.250;37.668;2023-05-02T05:03:46;100386.56;;;9.82;56.27
45369;BME280;51342;55.250;37.668;2023-05-02T05:06:19;100388.66;;;9.99;57.05
45369;BME280;51342;55.250;37.668;2023-05-02T05:08:52;100383.78;;;10.16;54.19
45369;BME280;51342;55.250;37.668;2023-05-02T05:11:24;100383.63;;;10.26;55.56
45369;BME280;51342;55.250;37.668;2023-05-02T05:13:57;100382.44;;;10.46;55.12
45369;BME280;51342;55.250;37.668;2023-05-02T05:16:30;100384.06;;;10.57;53.60
45369;BME280;51342;55.250;37.668;2023-05-02T05:19:02;100388.66;;;10.61;53.18
45369;BME280;51342;55.250;37.668;2023-05-02T05:21:35;100384.97;;;10.71;53.14
45369;BME280;51342;55.250;37.668;2023-05-02T05:24:07;100390.97;;;10.83;53.43
45369;BME280;51342;55.250;37.668;2023-05-02T05:26:39;100389.41;;;10.98;52.02
45369;BME280;51342;55.250;37.668;2023-05-02T05:29:10;100390.13;;;11.09;52.50
45369;BME280;51342;55.250;37.668;2023-05-02T05:31:45;100382.59;;;11.12;52.29
45369;BME280;51342;55.250;37.668;2023-05-02T05:34:21;100394.53;;;11.23;51.91
45369;BME280;51342;55.250;37.668;2023-05-02T05:36:55;100386.78;;;11.23;51.75
45369;BME280;51342;55.250;37.668;2023-05-02T05:39:26;100386.28;;;11.29;51.29
45369;BME280;51342;55.250;37.668;2023-05-02T05:42:00;100399.22;;;11.42;51.49
45369;BME280;51342;55.250;37.668;2023-05-02T05:44:34;100385.94;;;11.51;51.23
45369;BME280;51342;55.250;37.668;2023-05-02T05:47:05;100394.41;;;11.61;51.35
45369;BME280;51342;55.250;37.668;2023-05-02T05:49:37;100390.00;;;11.74;50.44
45369;BME280;51342;55.250;37.668;2023-05-02T05:52:09;100383.75;;;11.83;49.06
45369;BME280;51342;55.250;37.668;2023-05-02T05:54:53;100384.84;;;11.87;46.78
45369;BME280;51342;55.250;37.668;2023-05-02T05:57:29;100382.34;;;11.75;45.76
45369;BME280;51342;55.250;37.668;2023-05-02T06:00:01;100388.34;;;11.61;46.88
45369;BME280;51342;55.250;37.668;2023-05-02T06:02:34;100387.81;;;11.66;46.25
45369;BME280;51342;55.250;37.668;2023-05-02T06:05:06;100388.50;;;11.77;47.16
45369;BME280;51342;55.250;37.668;2023-05-02T06:07:37;100380.66;;;11.89;48.01
45369;BME280;51342;55.250;37.668;2023-05-02T06:10:09;100384.44;;;11.94;44.94
45369;BME280;51342;55.250;37.668;2023-05-02T06:12:41;100370.28;;;11.89;45.15
45369;BME280;51342;55.250;37.668;2023-05-02T06:15:15;100378.34;;;11.93;44.56
45369;BME280;51342;55.250;37.668;2023-05-02T06:17:46;100393.56;;;12.02;44.29
45369;BME280;51342;55.250;37.668;2023-05-02T06:20:19;100393.56;;;12.02;45.25
45369;BME280;51342;55.250;37.668;2023-05-02T06:22:51;100383.47;;;12.07;45.48
45369;BME280;51342;55.250;37.668;2023-05-02T06:25:22;100386.66;;;12.16;46.51
45369;BME280;51342;55.250;37.668;2023-05-02T06:27:53;100390.09;;;12.30;45.95
45369;BME280;51342;55.250;37.668;2023-05-02T06:30:25;100385.75;;;12.43;46.83
45369;BME280;51342;55.250;37.668;2023-05-02T06:32:57;100392.00;;;12.47;43.98
45369;BME280;51342;55.250;37.668;2023-05-02T06:35:28;100389.25;;;12.44;44.17
45369;BME280;51342;55.250;37.668;2023-05-02T06:37:59;100391.59;;;12.54;43.87
45369;BME280;51342;55.250;37.668;2023-05-02T06:40:33;100399.28;;;12.53;42.86
45369;BME280;51342;55.250;37.668;2023-05-02T06:43:06;100401.97;;;12.54;42.75
45369;BME280;51342;55.250;37.668;2023-05-02T06:45:38;100393.38;;;12.55;40.30
45369;BME280;51342;55.250;37.668;2023-05-02T06:48:10;100390.66;;;12.39;40.20
45369;BME280;51342;55.250;37.668;2023-05-02T06:50:41;100394.06;;;12.38;43.21
45369;BME280;51342;55.250;37.668;2023-05-02T06:53:13;100390.84;;;12.42;41.93
45369;BME280;51342;55.250;37.668;2023-05-02T06:55:45;100394.88;;;12.52;42.49
45369;BME280;51342;55.250;37.668;2023-05-02T06:58:17;100389.78;;;12.53;40.05
45369;BME280;51342;55.250;37.668;2023-05-02T07:00:48;100390.19;;;12.59;41.47
45369;BME280;51342;55.250;37.668;2023-05-02T07:03:20;100395.38;;;12.59;40.22
45369;BME280;51342;55.250;37.668;2023-05-02T07:05:52;100390.28;;;12.61;42.18
45369;BME280;51342;55.250;37.668;2023-05-02T07:08:23;100393.16;;;12.65;39.01
45369;BME280;51342;55.250;37.668;2023-05-02T07:10:54;100392.22;;;12.50;37.96
45369;BME280;51342;55.250;37.668;2023-05-02T07:13:26;100388.69;;;12.35;38.64
45369;BME280;51342;55.250;37.668;2023-05-02T07:15:57;100388.88;;;12.38;38.74
45369;BME280;51342;55.250;37.668;2023-05-02T07:18:28;100387.88;;;12.36;38.58
45369;BME280;51342;55.250;37.668;2023-05-02T07:21:00;100394.59;;;12.47;41.16
45369;BME280;51342;55.250;37.668;2023-05-02T07:23:31;100390.97;;;12.58;42.09
45369;BME280;51342;55.250;37.668;2023-05-02T07:26:03;100393.59;;;12.73;42.11
45369;BME280;51342;55.250;37.668;2023-05-02T07:28:35;100390.00;;;12.86;44.07
45369;BME280;51342;55.250;37.668;2023-05-02T07:31:06;100390.03;;;13.00;43.62
45369;BME280;51342;55.250;37.668;2023-05-02T07:33:38;100391.28;;;13.07;41.93
45369;BME280;51342;55.250;37.668;2023-05-02T07:36:09;100394.69;;;13.06;42.44
45369;BME280;51342;55.250;37.668;2023-05-02T07:38:41;100394.84;;;13.09;41.27
45369;BME280;51342;55.250;37.668;2023-05-02T07:41:12;100393.06;;;13.08;41.57
45369;BME280;51342;55.250;37.668;2023-05-02T07:43:44;100386.63;;;13.02;40.14
45369;BME280;51342;55.250;37.668;2023-05-02T07:46:16;100395.75;;;13.10;41.15
45369;BME280;51342;55.250;37.668;2023-05-02T07:48:47;100388.75;;;13.09;38.34
45369;BME280;51342;55.250;37.668;2023-05-02T07:51:18;100386.91;;;13.06;37.37
45369;BME280;51342;55.250;37.668;2023-05-02T07:53:51;100383.56;;;13.09;37.90
45369;BME280;51342;55.250;37.668;2023-05-02T07:56:28;100380.25;;;13.11;36.50
45369;BME280;51342;55.250;37.668;2023-05-02T07:59:00;100369.88;;;13.11;35.41
45369;BME280;51342;55.250;37.668;2023-05-02T08:01:31;100383.03;;;13.14;37.07
45369;BME280;51342;55.250;37.668;2023-05-02T08:04:03;100376.50;;;13.21;40.10
45369;BME280;51342;55.250;37.668;2023-05-02T08:06:34;100374.78;;;13.36;38.95
45369;BME280;51342;55.250;37.668;2023-05-02T08:09:07;100368.41;;;13.46;40.04
45369;BME280;51342;55.250;37.668;2023-05-02T08:11:39;100371.38;;;13.52;40.30
45369;BME280;51342;55.250;37.668;2023-05-02T08:14:10;100369.81;;;13.56;37.49
45369;BME280;51342;55.250;37.668;2023-05-02T08:16:42;100364.38;;;13.51;36.79
45369;BME280;51342;55.250;37.668;2023-05-02T08:19:14;100368.84;;;13.53;36.51
45369;BME280;51342;55.250;37.668;2023-05-02T08:21:45;100363.28;;;13.62;38.23
45369;BME280;51342;55.250;37.668;2023-05-02T08:24:17;100365.31;;;13.68;38.24
45369;BME280;51342;55.250;37.668;2023-05-02T08:26:48;100370.75;;;13.72;35.78
45369;BME280;51342;55.250;37.668;2023-05-02T08:29:21;100361.84;;;13.67;36.85
45369;BME280;51342;55.250;37.668;2023-05-02T08:31:53;100370.88;;;13.59;34.61
45369;BME280;51342;55.250;37.668;2023-05-02T08:34:24;100368.84;;;13.53;33.89
45369;BME280;51342;55.250;37.668;2023-05-02T08:36:56;100361.94;;;13.54;35.45
45369;BME280;51342;55.250;37.668;2023-05-02T08:39:27;100356.19;;;13.60;33.87
45369;BME280;51342;55.250;37.668;2023-05-02T08:41:58;100359.69;;;13.60;36.16
45369;BME280;51342;55.250;37.668;2023-05-02T08:44:31;100365.31;;;13.68;33.95
45369;BME280;51342;55.250;37.668;2023-05-02T08:47:03;100360.91;;;13.67;34.49
45369;BME280;51342;55.250;37.668;2023-05-02T08:49:37;100360.28;;;13.71;37.77
45369;BME280;51342;55.250;37.668;2023-05-02T08:52:11;100350.47;;;13.82;37.17
45369;BME280;51342;55.250;37.668;2023-05-02T08:54:43;100359.09;;;13.97;37.46
45369;BME280;51342;55.250;37.668;2023-05-02T08:57:15;100362.19;;;14.06;38.16
45369;BME280;51342;55.250;37.668;2023-05-02T08:59:46;100358.13;;;14.11;35.91
45369;BME280;51342;55.250;37.668;2023-05-02T09:05:32;100357.88;;;14.06;34.46
45369;BME280;51342;55.250;37.668;2023-05-02T09:08:04;100356.28;;;14.09;36.56
45369;BME280;51342;55.250;37.668;2023-05-02T09:10:35;100356.28;;;14.09;36.07
45369;BME280;51342;55.250;37.668;2023-05-02T09:16:18;100358.09;;;13.95;34.25
45369;BME280;51342;55.250;37.668;2023-05-02T09:18:59;100351.19;;;13.95;34.57
45369;BME280;51342;55.250;37.668;2023-05-02T09:21:36;100351.19;;;13.95;31.76
45369;BME280;51342;55.250;37.668;2023-05-02T09:24:16;100350.53;;;13.83;33.26
45369;BME280;51342;55.250;37.668;2023-05-02T09:27:03;100340.25;;;13.85;33.13
45369;BME280;51342;55.250;37.668;2023-05-02T09:29:34;100341.38;;;13.90;32.57
45369;BME280;51342;55.250;37.668;2023-05-02T09:32:06;100334.63;;;13.93;35.20
45369;BME280;51342;55.250;37.668;2023-05-02T09:34:37;100338.94;;;14.09;36.16
45369;BME280;51342;55.250;37.668;2023-05-02T09:37:09;100340.56;;;14.23;36.79
45369;BME280;51342;55.250;37.668;2023-05-02T09:40:06;100338.19;;;14.12;32.69
45369;BME280;51342;55.250;37.668;2023-05-02T09:42:37;100325.75;;;14.06;32.65
45369;BME280;51342;55.250;37.668;2023-05-02T09:45:18;100335.47;;;14.09;35.53
45369;BME280;51342;55.250;37.668;2023-05-02T09:47:50;100342.06;;;14.18;34.80
45369;BME280;51342;55.250;37.668;2023-05-02T09:50:32;100324.22;;;14.26;35.04
45369;BME280;51342;55.250;37.668;2023-05-02T09:53:06;100329.50;;;14.27;33.24
45369;BME280;51342;55.250;37.668;2023-05-02T09:55:38;100320.66;;;14.24;32.74
45369;BME280;51342;55.250;37.668;2023-05-02T09:58:20;100322.03;;;14.17;30.15
45369;BME280;51342;55.250;37.668;2023-05-02T10:00:57;100326.75;;;14.08;32.19
45369;BME280;51342;55.250;37.668;2023-05-02T10:03:29;100327.78;;;14.12;33.76
45369;BME280;51342;55.250;37.668;2023-05-02T10:06:03;100317.97;;;14.22;31.79
45369;BME280;51342;55.250;37.668;2023-05-02T10:08:35;100320.81;;;14.27;32.70
45369;BME280;51342;55.250;37.668;2023-05-02T10:11:07;100315.28;;;14.37;32.80
45369;BME280;51342;55.250;37.668;2023-05-02T10:13:39;100311.09;;;14.41;33.25
45369;BME280;51342;55.250;37.668;2023-05-02T10:16:15;100312.50;;;14.50;34.35
45369;BME280;51342;55.250;37.668;2023-05-02T10:19:13;100307.03;;;14.46;33.50
45369;BME280;51342;55.250;37.668;2023-05-02T10:21:49;100306.81;;;14.41;34.24
45369;BME280;51342;55.250;37.668;2023-05-02T10:24:21;100308.34;;;14.38;34.67
45369;BME280;51342;55.250;37.668;2023-05-02T10:26:53;100307.78;;;14.43;34.79
45369;BME280;51342;55.250;37.668;2023-05-02T10:29:28;100318.53;;;14.49;34.35
45369;BME280;51342;55.250;37.668;2023-05-02T10:32:02;100307.59;;;14.40;34.60
45369;BME280;51342;55.250;37.668;2023-05-02T10:34:35;100311.13;;;14.24;33.77
45369;BME280;51342;55.250;37.668;2023-05-02T10:37:06;100314.38;;;14.04;32.79
45369;BME280;51342;55.250;37.668;2023-05-02T10:39:38;100297.00;;;13.87;31.77
45369;BME280;51342;55.250;37.668;2023-05-02T10:42:09;100302.44;;;13.91;32.91
45369;BME280;51342;55.250;37.668;2023-05-02T10:44:40;100310.97;;;14.05;30.85
45369;BME280;51342;55.250;37.668;2023-05-02T10:47:23;100299.75;;;14.06;28.95
45369;BME280;51342;55.250;37.668;2023-05-02T10:52:32;100294.22;;;14.16;31.95
45369;BME280;51342;55.250;37.668;2023-05-02T10:55:20;100292.03;;;14.24;30.63
45369;BME280;51342;55.250;37.668;2023-05-02T11:00:38;100290.78;;;14.33;32.01
45369;BME280;51342;55.250;37.668;2023-05-02T11:03:10;100287.75;;;14.42;33.95
45369;BME280;51342;55.250;37.668;2023-05-02T11:06:03;100283.72;;;14.47;34.59
45369;BME280;51342;55.250;37.668;2023-05-02T11:08:36;100290.28;;;14.57;33.73
45369;BME280;51342;55.250;37.668;2023-05-02T11:17:08;100278.38;;;14.62;32.11
45369;BME280;51342;55.250;37.668;2023-05-02T11:24:51;100262.88;;;14.81;32.13
45369;BME280;51342;55.250;37.668;2023-05-02T11:30:05;100251.41;;;14.78;30.68
45369;BME280;51342;55.250;37.668;2023-05-02T11:37:55;100248.50;;;14.90;33.36
45369;BME280;51342;55.250;37.668;2023-05-02T11:40:27;100247.00;;;14.95;29.86
45369;BME280;51342;55.250;37.668;2023-05-02T11:42:59;100233.03;;;14.93;31.32
45369;BME280;51342;55.250;37.668;2023-05-02T11:45:35;100236.75;;;14.98;32.50
45369;BME280;51342;55.250;37.668;2023-05-02T11:48:07;100235.94;;;14.99;31.36
45369;BME280;51342;55.250;37.668;2023-05-02T11:50:43;100248.94;;;14.99;33.36
45369;BME280;51342;55.250;37.668;2023-05-02T11:53:19;100234.75;;;14.92;29.97
45369;BME280;51342;55.250;37.668;2023-05-02T11:55:56;100232.50;;;14.82;30.35
45369;BME280;51342;55.250;37.668;2023-05-02T11:58:29;100238.84;;;14.87;31.36
45369;BME280;51342;55.250;37.668;2023-05-02T12:01:13;100242.38;;;14.89;33.73
45369;BME280;51342;55.250;37.668;2023-05-02T12:03:45;100234.34;;;14.84;30.85
45369;BME280;51342;55.250;37.668;2023-05-02T12:06:19;100237.72;;;14.82;29.60
45369;BME280;51342;55.250;37.668;2023-05-02T12:08:50;100234.41;;;14.68;28.72
45369;BME280;51342;55.250;37.668;2023-05-02T12:11:26;100238.50;;;14.63;28.41
45369;BME280;51342;55.250;37.668;2023-05-02T12:13:57;100231.13;;;14.54;27.90
45369;BME280;51342;55.250;37.668;2023-05-02T12:16:29;100225.69;;;14.50;28.97
45369;BME280;51342;55.250;37.668;2023-05-02T12:19:01;100226.75;;;14.53;31.87
45369;BME280;51342;55.250;37.668;2023-05-02T12:21:32;100218.25;;;14.57;30.38
45369;BME280;51342;55.250;37.668;2023-05-02T12:24:04;100225.41;;;14.62;29.19
45369;BME280;51342;55.250;37.668;2023-05-02T12:26:36;100221.63;;;14.55;28.93
45369;BME280;51342;55.250;37.668;2023-05-02T12:29:07;100225.09;;;14.55;31.28
45369;BME280;51342;55.250;37.668;2023-05-02T12:31:39;100212.16;;;14.57;30.37
45369;BME280;51342;55.250;37.668;2023-05-02T12:34:10;100219.97;;;14.57;29.74
45369;BME280;51342;55.250;37.668;2023-05-02T12:36:45;100209.66;;;14.58;29.44
45369;BME280;51342;55.250;37.668;2023-05-02T12:39:16;100205.47;;;14.62;30.28
45369;BME280;51342;55.250;37.668;2023-05-02T12:41:47;100205.75;;;14.68;30.71
45369;BME280;51342;55.250;37.668;2023-05-02T12:44:35;100197.88;;;14.67;30.40
45369;BME280;51342;55.250;37.668;2023-05-02T12:47:12;100198.84;;;14.69;30.15
45369;BME280;51342;55.250;37.668;2023-05-02T12:49:57;100197.88;;;14.67;28.95
45369;BME280;51342;55.250;37.668;2023-05-02T12:52:49;100193.50;;;14.66;30.87
45369;BME280;51342;55.250;37.668;2023-05-02T12:55:22;100205.03;;;14.71;31.70
45369;BME280;51342;55.250;37.668;2023-05-02T12:58:03;100201.59;;;14.72;30.65
45369;BME280;51342;55.250;37.668;2023-05-02T13:00:37;100195.56;;;14.73;31.43
45369;BME280;51342;55.250;37.668;2023-05-02T13:03:09;100190.38;;;14.73;32.06
45369;BME280;51342;55.250;37.668;2023-05-02T13:05:40;100187.81;;;14.74;31.03
45369;BME280;51342;55.250;37.668;2023-05-02T13:08:12;100187.81;;;14.74;31.32
45369;BME280;51342;55.250;37.668;2023-05-02T13:10:43;100193.97;;;14.75;30.15
45369;BME280;51342;55.250;37.668;2023-05-02T13:13:14;100196.41;;;14.72;31.78
45369;BME280;51342;55.250;37.668;2023-05-02T13:15:46;100197.28;;;14.72;32.33
45369;BME280;51342;55.250;37.668;2023-05-02T13:18:17;100191.94;;;14.69;32.83
45369;BME280;51342;55.250;37.668;2023-05-02T13:20:49;100192.84;;;14.70;33.73
45369;BME280;51342;55.250;37.668;2023-05-02T13:23:20;100181.38;;;14.66;31.93
45369;BME280;51342;55.250;37.668;2023-05-02T13:25:51;100181.31;;;14.65;31.09
45369;BME280;51342;55.250;37.668;2023-05-02T13:28:23;100183.03;;;14.64;29.86
45369;BME280;51342;55.250;37.668;2023-05-02T13:30:55;100177.66;;;14.61;31.28
45369;BME280;51342;55.250;37.668;2023-05-02T13:33:27;100181.66;;;14.54;29.66
45369;BME280;51342;55.250;37.668;2023-05-02T13:35:58;100178.75;;;14.48;29.12
45369;BME280;51342;55.250;37.668;2023-05-02T13:38:30;100176.78;;;14.44;30.89
45369;BME280;51342;55.250;37.668;2023-05-02T13:41:01;100179.25;;;14.41;29.43
45369;BME280;51342;55.250;37.668;2023-05-02T13:43:32;100178.94;;;14.35;30.00
45369;BME280;51342;55.250;37.668;2023-05-02T13:46:04;100175.28;;;14.31;30.15
45369;BME280;51342;55.250;37.668;2023-05-02T13:48:35;100163.91;;;14.29;30.10
45369;BME280;51342;55.250;37.668;2023-05-02T13:51:07;100165.53;;;14.27;29.54
45369;BME280;51342;55.250;37.668;2023-05-02T13:53:39;100167.25;;;14.27;30.98
45369;BME280;51342;55.250;37.668;2023-05-02T13:56:10;100166.19;;;14.23;30.23
45369;BME280;51342;55.250;37.668;2023-05-02T13:58:42;100160.69;;;14.17;30.44
45369;BME280;51342;55.250;37.668;2023-05-02T14:01:13;100162.31;;;14.15;31.13
45369;BME280;51342;55.250;37.668;2023-05-02T14:03:44;100152.66;;;14.13;31.61
45369;BME280;51342;55.250;37.668;2023-05-02T14:06:16;100158.59;;;14.10;32.73
45369;BME280;51342;55.250;37.668;2023-05-02T14:08:47;100160.00;;;14.03;35.69